Cazadero, California
Current Conditions -  °F | °C
As of 12:53 PM on Saturday 25 Oct 2014 (Local Time) from KSTS Reporting Station
Broken Clouds Broken Clouds  
Wind Chill: 67°   Ceiling: 3900
Heat Index: 67°   Visibility: 10mi
Dew Point: 56°   Wind: 17mph
Humidity: 68%   Direction: 220°SW
Pressure: 30.01"   Gusts: 25mph
Location:  38.53°N, 123.08°W
Report Text: KSTS 251953Z 22015G22KT 10SM FEW029 BKN039 BKN049 19/13 A3001 RMK AO2 SLP154 T01940133
Loading
Personal Weather Stations






























Interactive Weather Map
Tropical Storm Tracking
New forecast layout! Learn more

10-Day Weather Forecast

Advertisements
Track Severe Weather on mobile